Terminal Aerodrome Forecast
Issued by NWS

Home | Current Version | Previous Version | Text Only | Print | Product List | Glossary On
Versions: 1 2 3 4 5 6 7 8 9 10 11 12 13 14 15
000
FTUS45 KABQ 251737
TAFFMN
TAF
KFMN 251737Z 2518/2618 23008KT P6SM SCT040 SCT250
     FM252100 26011KT P6SM VCSH SCT070 SCT120
      TEMPO 2522/2524 VRB15G30KT -TSRA BKN060CB
     FM260500 VRB05KT P6SM SCT070 BKN120
     FM261600 28007KT P6SM FEW120=

USA.gov is the U.S. government's official web portal to all federal, state and local government web resources and services.